sensor_id;sensor_type;location;lat;lon;timestamp;temperature;humidity
5055;DHT22;13829;48.990;8.346;2022-07-06T00:01:56;20.10;72.00
5055;DHT22;13829;48.990;8.346;2022-07-06T00:04:23;20.10;72.80
5055;DHT22;13829;48.990;8.346;2022-07-06T00:06:50;20.10;72.20
5055;DHT22;13829;48.990;8.346;2022-07-06T00:09:17;20.10;72.60
5055;DHT22;13829;48.990;8.346;2022-07-06T00:11:44;20.10;72.70
5055;DHT22;13829;48.990;8.346;2022-07-06T00:14:11;20.10;73.20
5055;DHT22;13829;48.990;8.346;2022-07-06T00:16:39;20.00;73.30
5055;DHT22;13829;48.990;8.346;2022-07-06T00:19:06;20.00;73.50
5055;DHT22;13829;48.990;8.346;2022-07-06T00:21:33;19.90;74.00
5055;DHT22;13829;48.990;8.346;2022-07-06T00:24:00;19.90;74.00
5055;DHT22;13829;48.990;8.346;2022-07-06T00:26:27;19.80;74.30
5055;DHT22;13829;48.990;8.346;2022-07-06T00:28:54;19.70;74.40
5055;DHT22;13829;48.990;8.346;2022-07-06T00:31:21;19.70;74.90
5055;DHT22;13829;48.990;8.346;2022-07-06T00:33:49;19.70;75.20
5055;DHT22;13829;48.990;8.346;2022-07-06T00:36:17;19.60;75.40
5055;DHT22;13829;48.990;8.346;2022-07-06T00:38:44;19.50;75.70
5055;DHT22;13829;48.990;8.346;2022-07-06T00:41:12;19.50;76.00
5055;DHT22;13829;48.990;8.346;2022-07-06T00:43:50;19.50;76.10
5055;DHT22;13829;48.990;8.346;2022-07-06T00:46:18;19.50;76.00
5055;DHT22;13829;48.990;8.346;2022-07-06T00:48:46;19.50;76.10
5055;DHT22;13829;48.990;8.346;2022-07-06T00:51:15;19.40;76.40
5055;DHT22;13829;48.990;8.346;2022-07-06T00:53:42;19.40;76.40
5055;DHT22;13829;48.990;8.346;2022-07-06T00:56:11;19.30;76.80
5055;DHT22;13829;48.990;8.346;2022-07-06T00:58:38;19.30;77.30
5055;DHT22;13829;48.990;8.346;2022-07-06T01:01:05;19.20;77.60
5055;DHT22;13829;48.990;8.346;2022-07-06T01:03:32;19.10;77.90
5055;DHT22;13829;48.990;8.346;2022-07-06T01:06:00;19.30;78.20
5055;DHT22;13829;48.990;8.346;2022-07-06T01:08:29;19.10;78.20
5055;DHT22;13829;48.990;8.346;2022-07-06T01:10:56;19.10;78.70
5055;DHT22;13829;48.990;8.346;2022-07-06T01:13:24;19.00;79.00
5055;DHT22;13829;48.990;8.346;2022-07-06T01:15:52;19.00;79.90
5055;DHT22;13829;48.990;8.346;2022-07-06T01:18:19;18.90;79.70
5055;DHT22;13829;48.990;8.346;2022-07-06T01:20:48;18.90;79.70
5055;DHT22;13829;48.990;8.346;2022-07-06T01:23:15;18.90;80.10
5055;DHT22;13829;48.990;8.346;2022-07-06T01:25:42;18.80;80.40
5055;DHT22;13829;48.990;8.346;2022-07-06T01:28:09;19.00;81.10
5055;DHT22;13829;48.990;8.346;2022-07-06T01:30:36;18.80;81.00
5055;DHT22;13829;48.990;8.346;2022-07-06T01:33:03;18.70;81.60
5055;DHT22;13829;48.990;8.346;2022-07-06T01:35:32;18.70;81.80
5055;DHT22;13829;48.990;8.346;2022-07-06T01:38:03;18.70;82.10
5055;DHT22;13829;48.990;8.346;2022-07-06T01:40:30;18.70;82.20
5055;DHT22;13829;48.990;8.346;2022-07-06T01:42:57;18.60;82.60
5055;DHT22;13829;48.990;8.346;2022-07-06T01:45:24;18.60;82.90
5055;DHT22;13829;48.990;8.346;2022-07-06T01:47:51;18.60;83.60
5055;DHT22;13829;48.990;8.346;2022-07-06T01:50:18;18.60;83.50
5055;DHT22;13829;48.990;8.346;2022-07-06T01:52:45;18.60;83.50
5055;DHT22;13829;48.990;8.346;2022-07-06T01:55:13;18.60;83.70
5055;DHT22;13829;48.990;8.346;2022-07-06T01:57:40;18.50;84.20
5055;DHT22;13829;48.990;8.346;2022-07-06T02:00:08;18.50;84.80
5055;DHT22;13829;48.990;8.346;2022-07-06T02:02:35;18.50;84.90
5055;DHT22;13829;48.990;8.346;2022-07-06T02:05:03;18.40;85.80
5055;DHT22;13829;48.990;8.346;2022-07-06T02:07:30;18.40;85.60
5055;DHT22;13829;48.990;8.346;2022-07-06T02:09:57;18.40;86.10
5055;DHT22;13829;48.990;8.346;2022-07-06T02:12:25;18.40;86.60
5055;DHT22;13829;48.990;8.346;2022-07-06T02:14:52;18.50;86.30
5055;DHT22;13829;48.990;8.346;2022-07-06T02:17:19;18.50;86.90
5055;DHT22;13829;48.990;8.346;2022-07-06T02:19:46;18.40;87.10
5055;DHT22;13829;48.990;8.346;2022-07-06T02:22:13;18.40;87.30
5055;DHT22;13829;48.990;8.346;2022-07-06T02:24:40;18.40;88.00
5055;DHT22;13829;48.990;8.346;2022-07-06T02:27:06;18.40;88.00
5055;DHT22;13829;48.990;8.346;2022-07-06T02:29:35;18.40;87.50
5055;DHT22;13829;48.990;8.346;2022-07-06T02:32:02;18.40;88.00
5055;DHT22;13829;48.990;8.346;2022-07-06T02:34:29;18.30;88.20
5055;DHT22;13829;48.990;8.346;2022-07-06T02:36:56;18.30;89.00
5055;DHT22;13829;48.990;8.346;2022-07-06T02:39:23;18.20;89.30
5055;DHT22;13829;48.990;8.346;2022-07-06T02:41:50;18.10;89.80
5055;DHT22;13829;48.990;8.346;2022-07-06T02:44:17;18.10;90.20
5055;DHT22;13829;48.990;8.346;2022-07-06T02:46:45;18.20;90.60
5055;DHT22;13829;48.990;8.346;2022-07-06T02:49:12;17.90;90.60
5055;DHT22;13829;48.990;8.346;2022-07-06T02:51:39;17.90;90.90
5055;DHT22;13829;48.990;8.346;2022-07-06T02:54:06;17.80;91.10
5055;DHT22;13829;48.990;8.346;2022-07-06T02:56:33;17.70;91.20
5055;DHT22;13829;48.990;8.346;2022-07-06T02:59:00;17.80;91.10
5055;DHT22;13829;48.990;8.346;2022-07-06T03:01:28;17.80;91.30
5055;DHT22;13829;48.990;8.346;2022-07-06T03:03:56;17.80;91.40
5055;DHT22;13829;48.990;8.346;2022-07-06T03:06:23;17.80;91.50
5055;DHT22;13829;48.990;8.346;2022-07-06T03:08:50;17.80;91.50
5055;DHT22;13829;48.990;8.346;2022-07-06T03:11:17;17.80;91.50
5055;DHT22;13829;48.990;8.346;2022-07-06T03:13:44;17.70;91.50
5055;DHT22;13829;48.990;8.346;2022-07-06T03:16:11;17.80;91.60
5055;DHT22;13829;48.990;8.346;2022-07-06T03:18:37;17.70;91.80
5055;DHT22;13829;48.990;8.346;2022-07-06T03:21:06;17.70;91.90
5055;DHT22;13829;48.990;8.346;2022-07-06T03:23:33;17.60;92.00
5055;DHT22;13829;48.990;8.346;2022-07-06T03:26:00;17.60;92.20
5055;DHT22;13829;48.990;8.346;2022-07-06T03:28:27;17.70;92.50
5055;DHT22;13829;48.990;8.346;2022-07-06T03:30:54;17.70;92.30
5055;DHT22;13829;48.990;8.346;2022-07-06T03:33:21;17.60;92.40
5055;DHT22;13829;48.990;8.346;2022-07-06T03:35:48;17.60;92.50
5055;DHT22;13829;48.990;8.346;2022-07-06T03:38:17;17.50;92.70
5055;DHT22;13829;48.990;8.346;2022-07-06T03:40:43;17.50;92.90
5055;DHT22;13829;48.990;8.346;2022-07-06T03:43:11;17.60;92.80
5055;DHT22;13829;48.990;8.346;2022-07-06T03:45:38;17.50;92.80
5055;DHT22;13829;48.990;8.346;2022-07-06T03:48:05;17.60;92.70
5055;DHT22;13829;48.990;8.346;2022-07-06T03:50:32;17.50;92.80
5055;DHT22;13829;48.990;8.346;2022-07-06T03:52:59;17.50;92.90
5055;DHT22;13829;48.990;8.346;2022-07-06T03:55:28;17.50;92.90
5055;DHT22;13829;48.990;8.346;2022-07-06T03:57:55;17.50;93.20
5055;DHT22;13829;48.990;8.346;2022-07-06T04:00:22;17.60;93.70
5055;DHT22;13829;48.990;8.346;2022-07-06T04:02:49;17.40;93.20
5055;DHT22;13829;48.990;8.346;2022-07-06T04:05:16;17.40;93.00
5055;DHT22;13829;48.990;8.346;2022-07-06T04:07:46;17.50;92.90
5055;DHT22;13829;48.990;8.346;2022-07-06T04:10:13;17.60;92.60
5055;DHT22;13829;48.990;8.346;2022-07-06T04:12:42;17.60;92.40
5055;DHT22;13829;48.990;8.346;2022-07-06T04:15:10;17.50;92.10
5055;DHT22;13829;48.990;8.346;2022-07-06T04:17:38;17.50;92.40
5055;DHT22;13829;48.990;8.346;2022-07-06T04:20:22;17.60;92.20
5055;DHT22;13829;48.990;8.346;2022-07-06T04:22:51;17.60;92.10
5055;DHT22;13829;48.990;8.346;2022-07-06T04:25:18;17.60;92.30
5055;DHT22;13829;48.990;8.346;2022-07-06T04:27:47;17.60;92.10
5055;DHT22;13829;48.990;8.346;2022-07-06T04:30:14;17.60;92.00
5055;DHT22;13829;48.990;8.346;2022-07-06T04:32:41;17.60;92.30
5055;DHT22;13829;48.990;8.346;2022-07-06T04:35:08;17.50;92.40
5055;DHT22;13829;48.990;8.346;2022-07-06T04:37:35;17.60;92.30
5055;DHT22;13829;48.990;8.346;2022-07-06T04:40:03;17.50;92.30
5055;DHT22;13829;48.990;8.346;2022-07-06T04:42:31;17.50;92.20
5055;DHT22;13829;48.990;8.346;2022-07-06T04:44:59;17.60;92.20
5055;DHT22;13829;48.990;8.346;2022-07-06T04:47:26;17.60;91.90
5055;DHT22;13829;48.990;8.346;2022-07-06T04:49:53;17.60;92.30
5055;DHT22;13829;48.990;8.346;2022-07-06T04:52:20;17.70;91.90
5055;DHT22;13829;48.990;8.346;2022-07-06T04:54:47;17.70;91.70
5055;DHT22;13829;48.990;8.346;2022-07-06T04:57:14;17.90;91.70
5055;DHT22;13829;48.990;8.346;2022-07-06T04:59:41;17.90;91.50
5055;DHT22;13829;48.990;8.346;2022-07-06T05:02:09;17.70;91.30
5055;DHT22;13829;48.990;8.346;2022-07-06T05:04:36;17.80;91.00
5055;DHT22;13829;48.990;8.346;2022-07-06T05:07:03;17.80;90.70
5055;DHT22;13829;48.990;8.346;2022-07-06T05:09:31;17.80;90.80
5055;DHT22;13829;48.990;8.346;2022-07-06T05:11:58;17.80;91.00
5055;DHT22;13829;48.990;8.346;2022-07-06T05:14:25;17.90;90.70
5055;DHT22;13829;48.990;8.346;2022-07-06T05:16:52;17.90;90.20
5055;DHT22;13829;48.990;8.346;2022-07-06T05:19:21;17.90;90.20
5055;DHT22;13829;48.990;8.346;2022-07-06T05:21:48;17.90;90.30
5055;DHT22;13829;48.990;8.346;2022-07-06T05:24:15;17.90;90.20
5055;DHT22;13829;48.990;8.346;2022-07-06T05:26:42;17.90;90.10
5055;DHT22;13829;48.990;8.346;2022-07-06T05:29:09;18.10;90.10
5055;DHT22;13829;48.990;8.346;2022-07-06T05:31:36;18.20;90.20
5055;DHT22;13829;48.990;8.346;2022-07-06T05:34:03;18.30;89.20
5055;DHT22;13829;48.990;8.346;2022-07-06T05:36:31;18.50;88.90
5055;DHT22;13829;48.990;8.346;2022-07-06T05:38:58;18.60;87.50
5055;DHT22;13829;48.990;8.346;2022-07-06T05:41:25;18.60;87.80
5055;DHT22;13829;48.990;8.346;2022-07-06T05:43:52;18.60;87.60
5055;DHT22;13829;48.990;8.346;2022-07-06T05:46:19;18.60;88.50
5055;DHT22;13829;48.990;8.346;2022-07-06T05:48:46;18.60;88.20
5055;DHT22;13829;48.990;8.346;2022-07-06T05:51:31;18.90;87.00
5055;DHT22;13829;48.990;8.346;2022-07-06T05:53:58;19.00;86.60
5055;DHT22;13829;48.990;8.346;2022-07-06T05:56:25;19.00;85.80
5055;DHT22;13829;48.990;8.346;2022-07-06T05:58:52;18.90;86.10
5055;DHT22;13829;48.990;8.346;2022-07-06T06:01:19;18.90;86.50
5055;DHT22;13829;48.990;8.346;2022-07-06T06:03:46;19.20;87.10
5055;DHT22;13829;48.990;8.346;2022-07-06T06:06:13;19.50;87.40
5055;DHT22;13829;48.990;8.346;2022-07-06T06:08:42;19.90;85.60
5055;DHT22;13829;48.990;8.346;2022-07-06T06:11:09;20.30;83.50
5055;DHT22;13829;48.990;8.346;2022-07-06T06:13:36;20.60;82.00
5055;DHT22;13829;48.990;8.346;2022-07-06T06:16:03;20.80;81.20
5055;DHT22;13829;48.990;8.346;2022-07-06T06:18:30;20.80;80.00
5055;DHT22;13829;48.990;8.346;2022-07-06T06:20:57;20.60;80.30
5055;DHT22;13829;48.990;8.346;2022-07-06T06:23:24;20.50;80.60
5055;DHT22;13829;48.990;8.346;2022-07-06T06:25:53;20.40;82.50
5055;DHT22;13829;48.990;8.346;2022-07-06T06:28:20;20.60;82.00
5055;DHT22;13829;48.990;8.346;2022-07-06T06:30:47;21.00;79.70
5055;DHT22;13829;48.990;8.346;2022-07-06T06:33:15;21.40;79.10
5055;DHT22;13829;48.990;8.346;2022-07-06T06:35:45;21.80;77.10
5055;DHT22;13829;48.990;8.346;2022-07-06T06:38:13;21.80;76.40
5055;DHT22;13829;48.990;8.346;2022-07-06T06:40:41;21.50;77.20
5055;DHT22;13829;48.990;8.346;2022-07-06T06:43:09;21.60;77.10
5055;DHT22;13829;48.990;8.346;2022-07-06T06:45:36;22.00;76.90
5055;DHT22;13829;48.990;8.346;2022-07-06T06:48:04;23.00;74.40
5055;DHT22;13829;48.990;8.346;2022-07-06T06:50:31;23.80;71.70
5055;DHT22;13829;48.990;8.346;2022-07-06T06:52:58;24.50;69.70
5055;DHT22;13829;48.990;8.346;2022-07-06T06:55:25;24.90;68.60
5055;DHT22;13829;48.990;8.346;2022-07-06T06:57:52;25.20;67.60
5055;DHT22;13829;48.990;8.346;2022-07-06T07:00:21;25.30;66.90
5055;DHT22;13829;48.990;8.346;2022-07-06T07:02:48;25.60;66.20
5055;DHT22;13829;48.990;8.346;2022-07-06T07:05:15;25.40;66.80
5055;DHT22;13829;48.990;8.346;2022-07-06T07:07:42;26.20;65.30
5055;DHT22;13829;48.990;8.346;2022-07-06T07:10:09;27.30;63.30
5055;DHT22;13829;48.990;8.346;2022-07-06T07:12:42;28.00;61.20
5055;DHT22;13829;48.990;8.346;2022-07-06T07:15:10;27.90;60.30
5055;DHT22;13829;48.990;8.346;2022-07-06T07:17:39;27.90;60.20
5055;DHT22;13829;48.990;8.346;2022-07-06T07:20:07;27.60;61.70
5055;DHT22;13829;48.990;8.346;2022-07-06T07:22:35;27.90;60.00
5055;DHT22;13829;48.990;8.346;2022-07-06T07:25:03;27.60;59.80
5055;DHT22;13829;48.990;8.346;2022-07-06T07:27:30;28.80;59.30
5055;DHT22;13829;48.990;8.346;2022-07-06T07:29:58;29.10;57.70
5055;DHT22;13829;48.990;8.346;2022-07-06T07:32:25;29.20;57.40
5055;DHT22;13829;48.990;8.346;2022-07-06T07:34:53;28.50;58.30
5055;DHT22;13829;48.990;8.346;2022-07-06T07:37:20;28.80;58.70
5055;DHT22;13829;48.990;8.346;2022-07-06T07:39:47;28.90;57.90
5055;DHT22;13829;48.990;8.346;2022-07-06T07:42:14;28.90;59.70
5055;DHT22;13829;48.990;8.346;2022-07-06T07:44:41;28.80;58.10
5055;DHT22;13829;48.990;8.346;2022-07-06T07:47:08;29.50;56.20
5055;DHT22;13829;48.990;8.346;2022-07-06T07:49:35;29.50;57.30
5055;DHT22;13829;48.990;8.346;2022-07-06T07:52:04;29.10;57.60
5055;DHT22;13829;48.990;8.346;2022-07-06T07:54:31;30.30;56.10
5055;DHT22;13829;48.990;8.346;2022-07-06T07:56:58;30.10;55.60
5055;DHT22;13829;48.990;8.346;2022-07-06T07:59:25;30.30;56.40
5055;DHT22;13829;48.990;8.346;2022-07-06T08:01:52;30.60;55.40
5055;DHT22;13829;48.990;8.346;2022-07-06T08:04:19;30.70;55.20
5055;DHT22;13829;48.990;8.346;2022-07-06T08:06:47;30.60;54.00
5055;DHT22;13829;48.990;8.346;2022-07-06T08:09:16;30.50;53.90
5055;DHT22;13829;48.990;8.346;2022-07-06T08:11:43;29.70;54.50
5055;DHT22;13829;48.990;8.346;2022-07-06T08:14:10;29.80;54.20
5055;DHT22;13829;48.990;8.346;2022-07-06T08:16:39;29.60;55.00
5055;DHT22;13829;48.990;8.346;2022-07-06T08:19:07;29.30;57.00
5055;DHT22;13829;48.990;8.346;2022-07-06T08:21:34;29.80;54.90
5055;DHT22;13829;48.990;8.346;2022-07-06T08:24:01;29.10;55.40
5055;DHT22;13829;48.990;8.346;2022-07-06T08:26:30;29.30;55.10
5055;DHT22;13829;48.990;8.346;2022-07-06T08:28:57;28.90;55.00
5055;DHT22;13829;48.990;8.346;2022-07-06T08:31:24;28.50;55.50
5055;DHT22;13829;48.990;8.346;2022-07-06T08:33:52;27.70;56.40
5055;DHT22;13829;48.990;8.346;2022-07-06T08:36:19;27.30;58.60
5055;DHT22;13829;48.990;8.346;2022-07-06T08:38:47;27.90;56.80
5055;DHT22;13829;48.990;8.346;2022-07-06T08:41:15;27.80;56.90
5055;DHT22;13829;48.990;8.346;2022-07-06T08:43:44;28.00;57.70
5055;DHT22;13829;48.990;8.346;2022-07-06T08:46:13;28.30;59.00
5055;DHT22;13829;48.990;8.346;2022-07-06T08:48:41;28.60;57.10
5055;DHT22;13829;48.990;8.346;2022-07-06T08:51:08;29.00;55.80
5055;DHT22;13829;48.990;8.346;2022-07-06T08:53:36;28.70;56.00
5055;DHT22;13829;48.990;8.346;2022-07-06T08:56:03;28.10;56.90
5055;DHT22;13829;48.990;8.346;2022-07-06T08:58:30;28.00;59.20
5055;DHT22;13829;48.990;8.346;2022-07-06T09:01:00;28.30;56.00
5055;DHT22;13829;48.990;8.346;2022-07-06T09:03:28;28.10;56.50
5055;DHT22;13829;48.990;8.346;2022-07-06T09:05:59;27.40;57.60
5055;DHT22;13829;48.990;8.346;2022-07-06T09:08:30;27.50;58.80
5055;DHT22;13829;48.990;8.346;2022-07-06T09:10:58;27.80;58.70
5055;DHT22;13829;48.990;8.346;2022-07-06T09:13:25;27.80;57.00
5055;DHT22;13829;48.990;8.346;2022-07-06T09:15:52;27.60;58.80
5055;DHT22;13829;48.990;8.346;2022-07-06T09:18:22;27.70;60.10
5055;DHT22;13829;48.990;8.346;2022-07-06T09:20:49;27.80;58.60
5055;DHT22;13829;48.990;8.346;2022-07-06T09:23:16;27.80;57.10
5055;DHT22;13829;48.990;8.346;2022-07-06T09:25:47;27.60;58.10
5055;DHT22;13829;48.990;8.346;2022-07-06T09:28:15;27.10;58.10
5055;DHT22;13829;48.990;8.346;2022-07-06T09:30:42;26.70;57.70
5055;DHT22;13829;48.990;8.346;2022-07-06T09:33:09;26.50;58.20
5055;DHT22;13829;48.990;8.346;2022-07-06T09:35:39;26.60;59.10
5055;DHT22;13829;48.990;8.346;2022-07-06T09:38:09;26.40;59.60
5055;DHT22;13829;48.990;8.346;2022-07-06T09:40:38;26.70;59.60
5055;DHT22;13829;48.990;8.346;2022-07-06T09:43:11;26.90;58.50
5055;DHT22;13829;48.990;8.346;2022-07-06T09:45:41;26.80;57.80
5055;DHT22;13829;48.990;8.346;2022-07-06T09:48:11;26.30;58.20
5055;DHT22;13829;48.990;8.346;2022-07-06T09:50:44;25.80;59.80
5055;DHT22;13829;48.990;8.346;2022-07-06T09:53:12;26.00;62.70
5055;DHT22;13829;48.990;8.346;2022-07-06T09:55:43;25.90;60.40
5055;DHT22;13829;48.990;8.346;2022-07-06T09:58:11;26.20;63.00
5055;DHT22;13829;48.990;8.346;2022-07-06T10:00:38;26.20;61.00
5055;DHT22;13829;48.990;8.346;2022-07-06T10:03:06;25.90;58.40
5055;DHT22;13829;48.990;8.346;2022-07-06T10:05:37;25.20;60.30
5055;DHT22;13829;48.990;8.346;2022-07-06T10:08:07;24.90;60.50
5055;DHT22;13829;48.990;8.346;2022-07-06T10:10:36;25.00;63.20
5055;DHT22;13829;48.990;8.346;2022-07-06T10:13:05;24.80;60.10
5055;DHT22;13829;48.990;8.346;2022-07-06T10:15:35;24.60;63.50
5055;DHT22;13829;48.990;8.346;2022-07-06T10:18:05;24.80;63.70
5055;DHT22;13829;48.990;8.346;2022-07-06T10:20:34;25.00;61.80
5055;DHT22;13829;48.990;8.346;2022-07-06T10:23:04;25.10;61.80
5055;DHT22;13829;48.990;8.346;2022-07-06T10:25:34;25.10;63.10
5055;DHT22;13829;48.990;8.346;2022-07-06T10:28:02;25.50;63.80
5055;DHT22;13829;48.990;8.346;2022-07-06T10:30:39;25.70;64.00
5055;DHT22;13829;48.990;8.346;2022-07-06T10:33:07;25.80;62.50
5055;DHT22;13829;48.990;8.346;2022-07-06T10:35:36;25.80;61.60
5055;DHT22;13829;48.990;8.346;2022-07-06T10:38:08;25.80;60.50
5055;DHT22;13829;48.990;8.346;2022-07-06T10:40:38;25.80;62.50
5055;DHT22;13829;48.990;8.346;2022-07-06T10:43:25;25.90;62.70
5055;DHT22;13829;48.990;8.346;2022-07-06T10:45:58;25.90;60.90
5055;DHT22;13829;48.990;8.346;2022-07-06T10:48:25;25.70;61.90
5055;DHT22;13829;48.990;8.346;2022-07-06T10:51:01;25.70;62.30
5055;DHT22;13829;48.990;8.346;2022-07-06T10:53:32;25.40;62.50
5055;DHT22;13829;48.990;8.346;2022-07-06T10:56:03;25.30;63.40
5055;DHT22;13829;48.990;8.346;2022-07-06T10:58:35;25.30;63.00
5055;DHT22;13829;48.990;8.346;2022-07-06T11:01:05;25.40;63.00
5055;DHT22;13829;48.990;8.346;2022-07-06T11:03:38;25.60;63.00
5055;DHT22;13829;48.990;8.346;2022-07-06T11:06:09;25.60;61.50
5055;DHT22;13829;48.990;8.346;2022-07-06T11:08:44;25.40;61.30
5055;DHT22;13829;48.990;8.346;2022-07-06T11:11:24;25.40;62.20
5055;DHT22;13829;48.990;8.346;2022-07-06T11:13:54;24.90;62.70
5055;DHT22;13829;48.990;8.346;2022-07-06T11:16:25;24.80;64.20
5055;DHT22;13829;48.990;8.346;2022-07-06T11:19:02;24.80;65.10
5055;DHT22;13829;48.990;8.346;2022-07-06T11:24:25;24.80;64.90
5055;DHT22;13829;48.990;8.346;2022-07-06T11:26:55;24.90;65.20
5055;DHT22;13829;48.990;8.346;2022-07-06T11:29:25;25.00;63.50
5055;DHT22;13829;48.990;8.346;2022-07-06T11:31:54;25.00;65.10
5055;DHT22;13829;48.990;8.346;2022-07-06T11:34:24;25.10;65.40
5055;DHT22;13829;48.990;8.346;2022-07-06T11:36:56;25.20;64.60
5055;DHT22;13829;48.990;8.346;2022-07-06T11:39:28;25.20;64.70
5055;DHT22;13829;48.990;8.346;2022-07-06T11:41:56;25.20;65.30
5055;DHT22;13829;48.990;8.346;2022-07-06T11:44:23;25.10;64.60
5055;DHT22;13829;48.990;8.346;2022-07-06T11:46:51;25.00;64.10
5055;DHT22;13829;48.990;8.346;2022-07-06T11:49:18;25.00;64.00
5055;DHT22;13829;48.990;8.346;2022-07-06T11:51:46;25.10;64.20
5055;DHT22;13829;48.990;8.346;2022-07-06T11:54:15;25.00;65.00
5055;DHT22;13829;48.990;8.346;2022-07-06T11:56:49;25.00;64.30
5055;DHT22;13829;48.990;8.346;2022-07-06T11:59:21;24.90;64.50
5055;DHT22;13829;48.990;8.346;2022-07-06T12:01:49;24.90;63.90
5055;DHT22;13829;48.990;8.346;2022-07-06T12:04:24;24.70;62.90
5055;DHT22;13829;48.990;8.346;2022-07-06T12:06:52;24.50;65.20
5055;DHT22;13829;48.990;8.346;2022-07-06T12:09:19;24.60;64.90
5055;DHT22;13829;48.990;8.346;2022-07-06T12:11:47;24.70;65.80
5055;DHT22;13829;48.990;8.346;2022-07-06T12:14:16;24.90;64.70
5055;DHT22;13829;48.990;8.346;2022-07-06T12:16:46;25.00;65.20
5055;DHT22;13829;48.990;8.346;2022-07-06T12:19:15;25.00;64.80
5055;DHT22;13829;48.990;8.346;2022-07-06T12:21:44;24.90;65.10
5055;DHT22;13829;48.990;8.346;2022-07-06T12:24:18;24.80;64.90
5055;DHT22;13829;48.990;8.346;2022-07-06T12:26:48;24.80;63.30
5055;DHT22;13829;48.990;8.346;2022-07-06T12:29:16;24.80;63.40
5055;DHT22;13829;48.990;8.346;2022-07-06T12:31:47;24.70;63.60
5055;DHT22;13829;48.990;8.346;2022-07-06T12:34:18;24.70;65.30
5055;DHT22;13829;48.990;8.346;2022-07-06T12:36:47;24.70;64.00
5055;DHT22;13829;48.990;8.346;2022-07-06T12:39:16;24.70;64.10
5055;DHT22;13829;48.990;8.346;2022-07-06T12:41:45;24.70;64.60
5055;DHT22;13829;48.990;8.346;2022-07-06T12:44:17;24.80;65.40
5055;DHT22;13829;48.990;8.346;2022-07-06T12:46:46;24.80;64.60
5055;DHT22;13829;48.990;8.346;2022-07-06T12:49:15;24.80;65.10
5055;DHT22;13829;48.990;8.346;2022-07-06T12:51:49;24.80;65.00
5055;DHT22;13829;48.990;8.346;2022-07-06T12:54:22;24.60;64.50
5055;DHT22;13829;48.990;8.346;2022-07-06T12:57:07;24.50;64.60
5055;DHT22;13829;48.990;8.346;2022-07-06T12:59:39;24.40;64.70
5055;DHT22;13829;48.990;8.346;2022-07-06T13:02:09;24.30;64.20
5055;DHT22;13829;48.990;8.346;2022-07-06T13:04:37;24.40;65.20
5055;DHT22;13829;48.990;8.346;2022-07-06T13:07:04;24.50;65.30
5055;DHT22;13829;48.990;8.346;2022-07-06T13:09:31;24.60;66.20
5055;DHT22;13829;48.990;8.346;2022-07-06T13:11:58;24.60;63.50
5055;DHT22;13829;48.990;8.346;2022-07-06T13:14:27;24.70;62.00
5055;DHT22;13829;48.990;8.346;2022-07-06T13:16:54;24.70;62.90
5055;DHT22;13829;48.990;8.346;2022-07-06T13:19:21;24.80;62.80
5055;DHT22;13829;48.990;8.346;2022-07-06T13:21:48;24.80;62.40
5055;DHT22;13829;48.990;8.346;2022-07-06T13:24:16;24.70;62.80
5055;DHT22;13829;48.990;8.346;2022-07-06T13:26:43;24.70;63.80
5055;DHT22;13829;48.990;8.346;2022-07-06T13:29:10;24.90;62.60
5055;DHT22;13829;48.990;8.346;2022-07-06T13:31:39;25.00;62.40
5055;DHT22;13829;48.990;8.346;2022-07-06T13:34:07;25.10;64.10
5055;DHT22;13829;48.990;8.346;2022-07-06T13:36:35;25.20;63.20
5055;DHT22;13829;48.990;8.346;2022-07-06T13:39:03;25.30;62.00
5055;DHT22;13829;48.990;8.346;2022-07-06T13:41:30;25.40;62.40
5055;DHT22;13829;48.990;8.346;2022-07-06T13:43:57;25.30;59.00
5055;DHT22;13829;48.990;8.346;2022-07-06T13:46:26;25.30;61.60
5055;DHT22;13829;48.990;8.346;2022-07-06T13:48:55;25.40;60.80
5055;DHT22;13829;48.990;8.346;2022-07-06T13:51:23;25.40;62.50
5055;DHT22;13829;48.990;8.346;2022-07-06T13:53:52;25.50;61.30
5055;DHT22;13829;48.990;8.346;2022-07-06T13:56:19;25.40;60.30
5055;DHT22;13829;48.990;8.346;2022-07-06T13:58:47;25.50;60.10
5055;DHT22;13829;48.990;8.346;2022-07-06T14:01:14;25.50;61.00
5055;DHT22;13829;48.990;8.346;2022-07-06T14:03:41;25.50;60.00
5055;DHT22;13829;48.990;8.346;2022-07-06T14:06:11;25.50;59.70
5055;DHT22;13829;48.990;8.346;2022-07-06T14:08:39;25.30;58.50
5055;DHT22;13829;48.990;8.346;2022-07-06T14:11:07;25.20;58.40
5055;DHT22;13829;48.990;8.346;2022-07-06T14:13:35;25.10;59.20
5055;DHT22;13829;48.990;8.346;2022-07-06T14:16:04;24.90;60.80
5055;DHT22;13829;48.990;8.346;2022-07-06T14:18:32;24.90;60.60
5055;DHT22;13829;48.990;8.346;2022-07-06T14:20:59;25.10;60.10
5055;DHT22;13829;48.990;8.346;2022-07-06T14:23:28;25.20;60.20
5055;DHT22;13829;48.990;8.346;2022-07-06T14:25:56;25.20;58.60
5055;DHT22;13829;48.990;8.346;2022-07-06T14:28:23;25.20;60.80
5055;DHT22;13829;48.990;8.346;2022-07-06T14:30:51;25.40;60.50
5055;DHT22;13829;48.990;8.346;2022-07-06T14:33:18;25.50;59.00
5055;DHT22;13829;48.990;8.346;2022-07-06T14:35:47;25.50;59.30
5055;DHT22;13829;48.990;8.346;2022-07-06T14:38:18;25.50;58.60
5055;DHT22;13829;48.990;8.346;2022-07-06T14:40:47;25.40;59.60
5055;DHT22;13829;48.990;8.346;2022-07-06T14:43:15;25.40;58.60
5055;DHT22;13829;48.990;8.346;2022-07-06T14:45:43;25.40;58.50
5055;DHT22;13829;48.990;8.346;2022-07-06T14:48:11;25.40;56.70
5055;DHT22;13829;48.990;8.346;2022-07-06T14:50:38;25.40;59.00
5055;DHT22;13829;48.990;8.346;2022-07-06T14:53:05;25.10;58.30
5055;DHT22;13829;48.990;8.346;2022-07-06T14:55:32;25.30;58.20
5055;DHT22;13829;48.990;8.346;2022-07-06T14:58:01;25.20;58.00
5055;DHT22;13829;48.990;8.346;2022-07-06T15:00:28;25.20;58.50
5055;DHT22;13829;48.990;8.346;2022-07-06T15:02:55;25.20;59.70
5055;DHT22;13829;48.990;8.346;2022-07-06T15:05:22;25.20;56.70
5055;DHT22;13829;48.990;8.346;2022-07-06T15:07:49;25.20;55.90
5055;DHT22;13829;48.990;8.346;2022-07-06T15:10:16;25.20;59.20
5055;DHT22;13829;48.990;8.346;2022-07-06T15:12:43;25.20;58.30
5055;DHT22;13829;48.990;8.346;2022-07-06T15:15:12;25.40;58.30
5055;DHT22;13829;48.990;8.346;2022-07-06T15:17:39;25.20;58.30
5055;DHT22;13829;48.990;8.346;2022-07-06T15:20:06;25.30;58.20
5055;DHT22;13829;48.990;8.346;2022-07-06T15:22:33;25.40;58.70
5055;DHT22;13829;48.990;8.346;2022-07-06T15:25:01;25.40;57.70
5055;DHT22;13829;48.990;8.346;2022-07-06T15:27:29;25.60;57.40
5055;DHT22;13829;48.990;8.346;2022-07-06T15:29:56;25.60;55.30
5055;DHT22;13829;48.990;8.346;2022-07-06T15:32:25;25.70;53.50
5055;DHT22;13829;48.990;8.346;2022-07-06T15:34:51;25.50;54.60
5055;DHT22;13829;48.990;8.346;2022-07-06T15:37:18;25.40;54.60
5055;DHT22;13829;48.990;8.346;2022-07-06T15:39:45;25.50;55.60
5055;DHT22;13829;48.990;8.346;2022-07-06T15:42:12;25.40;55.00
5055;DHT22;13829;48.990;8.346;2022-07-06T15:44:39;25.50;55.40
5055;DHT22;13829;48.990;8.346;2022-07-06T15:47:07;25.50;56.10
5055;DHT22;13829;48.990;8.346;2022-07-06T15:49:35;25.60;54.80
5055;DHT22;13829;48.990;8.346;2022-07-06T15:52:03;25.50;53.20
5055;DHT22;13829;48.990;8.346;2022-07-06T15:54:30;25.30;54.40